Flight Track Log - Related Links

Times and Time Zones

All times are in EDT time to prevent confusion due to time zone crossing. See the UPS35 flight status page for this flight to view local times or setup timezone preferences in your user account.

Time Position Orientation Groundspeed Altitude Reporting Facility
EDT Latitude Longitude Course Direction KTS MPH feet Rate Location/Type
Sun 06:39:46 AM -33.9320 151.1690 165° South 9 10  Level FlightAware ADS-B
Sun 06:41:01 AM -33.9350 151.1710 151° Southeast 12 14 10 Level FlightAware ADS-B
Sun 06:41:31 AM -33.9370 151.1710 180° South 15 17 11 Level FlightAware ADS-B
Sun 06:41:51 AM -33.9380 151.1720 140° Southeast 17 20 12 Level FlightAware ADS-B
Sun 06:42:21 AM -33.9410 151.1730 165° South 20 23 12 Level FlightAware ADS-B
Sun 06:42:51 AM -33.9440 151.1730 180° South 18 21 13 Level FlightAware ADS-B
Sun 06:43:21 AM -33.9460 151.1740 157° South 18 21 14 Level FlightAware ADS-B
Sun 06:43:46 AM -33.9490 151.1750 165° South 24 28 15 Level FlightAware ADS-B
Sun 06:44:17 AM -33.9520 151.1750 180° South 27 31 16 Level FlightAware ADS-B
Sun 06:45:01 AM -33.9560 151.1760 168° South 17 20 18 Level FlightAware ADS-B
Sun 06:45:37 AM -33.9590 151.1770 165° South 21 24 21 Level FlightAware ADS-B
Sun 06:45:51 AM -33.9610 151.1780 157° South 23 26 24 Level FlightAware ADS-B
Sun 06:46:36 AM -33.9640 151.1780 180° South 7 8 25 Level FlightAware ADS-B
Sun 06:48:41 AM -33.9640 151.1800 90° East 9 10 31 Level FlightAware ADS-B
Sun 06:49:06 AM -33.9630 151.1800 360° North 13 15 85 Level FlightAware ADS-B
Sun 06:49:26 AM -33.9580 151.1790 351° North 92 106 130 Level FlightAware ADS-B
Sun 06:49:52 AM -33.9430 151.1750 348° North 166 191 100 1,038 Climbing FlightAware ADS-B
Sun 06:50:18 AM -33.9220 151.1700 349° North 167 192 900 1,889 Climbing FlightAware ADS-B
Sun 06:50:46 AM -33.8980 151.1620 345° North 187 215 1,800 1,953 Climbing FlightAware ADS-B
Sun 06:51:01 AM -33.8860 151.1550 334° Northwest 181 208 2,300 1,867 Climbing FlightAware ADS-B
Sun 06:51:31 AM -33.8690 151.1330 313° West 186 214 3,200 1,309 Climbing FlightAware ADS-B
Sun 06:51:56 AM -33.8530 151.1100 310° West 230 265 3,500 982 Climbing FlightAware ADS-B
Sun 06:52:26 AM -33.8320 151.0810 311° West 250 288 4,100 1,424 Climbing FlightAware ADS-B
Sun 06:52:55 AM -33.8130 151.0550 311° West 281 323 4,900 2,377 Climbing FlightAware ADS-B
Sun 06:53:19 AM -33.7950 151.0320 313° West 275 316 6,200 2,830 Climbing FlightAware ADS-B
Sun 06:53:48 AM -33.7660 150.9960 314° West 291 335 7,400 2,586 Climbing FlightAware ADS-B
Sun 06:54:17 AM -33.7400 150.9640 314° West 298 343 8,700 2,914 Climbing FlightAware ADS-B
Sun 06:54:58 AM -33.7010 150.9130 313° West 293 337 10,800 2,169 Climbing FlightAware ADS-B
Sun 06:55:40 AM -33.6490 150.8440 312° West 345 397 11,700 1,333 Climbing FlightAware ADS-B
Sun 06:56:19 AM -33.6020 150.7860 314° West 382 440 12,600 1,778 Climbing FlightAware ADS-B
Sun 06:56:34 AM -33.5780 150.7700 331° Northwest 395 455 13,300 2,200 Climbing FlightAware ADS-B
Sun 06:57:19 AM -33.4950 150.7470 347° North 415 478 14,800 2,329 Climbing FlightAware ADS-B
Sun 06:57:59 AM -33.4190 150.7240 346° North 417 480 16,600 2,329 Climbing FlightAware ADS-B
Sun 06:58:44 AM -33.3350 150.6970 345° North 419 482 18,100 1,906 Climbing FlightAware ADS-B
Sun 06:59:24 AM -33.2580 150.6730 345° North 430 495 19,300 1,800 Climbing FlightAware ADS-B
Sun 07:00:04 AM -33.1760 150.6520 348° North 447 514 20,500 1,800 Climbing FlightAware ADS-B
Sun 07:00:44 AM -33.1000 150.6320 348° North 443 510 21,700 1,769 Climbing FlightAware ADS-B
Sun 07:01:22 AM -33.0190 150.6050 344° North 453 521 22,800 1,663 Climbing FlightAware ADS-B
Sun 07:02:07 AM -32.9270 150.5760 345° North 462 532 24,000 1,482 Climbing FlightAware ADS-B
Sun 07:02:47 AM -32.8430 150.5510 346° North 460 529 24,900 1,465 Climbing FlightAware ADS-B
Sun 07:03:33 AM -32.7480 150.5240 347° North 464 534 26,100 1,835 Climbing FlightAware ADS-B
Sun 07:04:12 AM -32.6650 150.5000 346° North 464 534 27,500 1,899 Climbing FlightAware ADS-B
Sun 07:04:52 AM -32.5800 150.4760 347° North 461 531 28,600 1,744 Climbing FlightAware ADS-B
Sun 07:05:38 AM -32.4940 150.4500 346° North 444 511 30,000 1,553 Climbing FlightAware ADS-B
Sun 07:06:17 AM -32.4070 150.4250 346° North 443 510 30,800 1,212 Climbing FlightAware ADS-B
Sun 07:07:17 AM -32.2870 150.3910 347° North 432 497 32,000 720 Climbing FlightAware ADS-B
Sun 07:07:57 AM -32.2090 150.3670 345° North 434 499 32,000  Level FlightAware ADS-B
Sun 07:08:42 AM -32.1180 150.3410 346° North 443 510 32,000  Level FlightAware ADS-B
Sun 07:09:22 AM -32.0420 150.3190 346° North 433 498 32,000  Level FlightAware ADS-B
Sun 07:10:01 AM -31.9650 150.2970 346° North 443 510 32,000  Level FlightAware ADS-B
Sun 07:10:41 AM -31.8920 150.2760 346° North 445 512 32,000  Level FlightAware ADS-B
Sun 07:11:42 AM -31.7630 150.2390 346° North 435 501 32,000  Level FlightAware ADS-B
Sun 07:12:22 AM -31.6820 150.2160 346° North 432 497 32,000  Level FlightAware ADS-B
Sun 07:13:02 AM -31.6010 150.1930 346° North 430 495 32,000  Level FlightAware ADS-B
Sun 07:13:47 AM -31.5130 150.1670 346° North 430 495 32,000  Level FlightAware ADS-B
Sun 07:14:32 AM -31.4240 150.1420 347° North 431 496 32,000  Level FlightAware ADS-B
Sun 07:15:59 AM -31.3090 150.1090 346° North 433 498 32,000 48 Level FlightAware ADS-B
Sun 07:16:37 AM -31.1760 150.0710 346° North 443 510 32,100 97 Climbing FlightAware ADS-B
Sun 07:17:01 AM -31.1380 150.0610 347° North 443 510 32,100 -71 Level FlightAware ADS-B
Sun 07:18:02 AM -31.0120 150.0250 346° North 444 511 32,000 -52 Descending FlightAware ADS-B
Sun 07:18:57 AM -30.8950 149.9920 346° North 444 511 32,000  Level FlightAware ADS-B
Sun 07:19:53 AM -30.7950 149.9630 346° North 444 511 32,000  Level FlightAware ADS-B
Sun 07:20:53 AM -30.6930 149.9340 346° North 444 511 32,000  Level FlightAware ADS-B
Sun 07:21:29 AM -30.6320 149.9160 346° North 444 511 32,000  Level FlightAware ADS-B
Sun 07:22:17 AM -30.5510 149.8930 346° North 444 511 32,000  Level FlightAware ADS-B
Sun 07:22:54 AM -30.4880 149.8740 345° North 444 511 32,000  Level FlightAware ADS-B
Sun 07:23:33 AM -30.4220 149.8550 346° North 444 511 32,000  Level FlightAware ADS-B
Sun 07:24:21 AM -30.3410 149.8320 346° North 444 511 32,000  Level FlightAware ADS-B
Sun 07:24:57 AM -30.2800 149.8140 346° North 444 511 32,000  Level FlightAware ADS-B
Sun 07:25:47 AM -30.1950 149.7900 346° North 444 511 32,000  Level FlightAware ADS-B
Sun 07:26:23 AM -30.1340 149.7720 346° North 444 511 32,000  Level FlightAware ADS-B
Sun 07:27:12 AM -30.0510 149.7480 346° North 444 511 32,000  Level FlightAware ADS-B
Sun 07:27:48 AM -29.9900 149.7310 346° North 444 511 32,000  Level FlightAware ADS-B
Sun 07:28:36 AM -29.9090 149.7070 346° North 444 511 32,000  Level FlightAware ADS-B
Sun 07:29:12 AM -29.8480 149.6900 346° North 444 511 32,000 57 Level FlightAware ADS-B
Sun 07:31:00 AM -29.6211 149.6177 345° North  Level FlightAware Approximate
Sun 07:32:00 AM -29.4951 149.5776 345° North  Level FlightAware Approximate
Sun 07:33:00 AM -29.3690 149.5377 345° North  Level FlightAware Approximate
Sun 07:34:00 AM -29.2429 149.4979 345° North  Level FlightAware Approximate
Sun 07:35:00 AM -29.1168 149.4581 345° North  Level FlightAware Approximate
Sun 07:36:00 AM -28.9907 149.4185 345° North  Level FlightAware Approximate
Sun 07:37:00 AM -28.8646 149.3789 345° North  Level FlightAware Approximate
Sun 07:38:00 AM -28.7385 149.3395 345° North  Level FlightAware Approximate
Sun 07:39:00 AM -28.6124 149.3001 345° North  Level FlightAware Approximate
Sun 07:40:00 AM -28.4862 149.2609 345° North  Level FlightAware Approximate
Sun 07:41:00 AM -28.3600 149.2217 345° North  Level FlightAware Approximate
Sun 07:42:00 AM -28.2339 149.1826 345° North  Level FlightAware Approximate
Sun 07:43:00 AM -28.1077 149.1436 345° North  Level FlightAware Approximate
Sun 07:44:00 AM -27.9815 149.1048 345° North  Level FlightAware Approximate
Sun 07:45:00 AM -27.8553 149.0659 345° North  Level FlightAware Approximate
Sun 07:46:00 AM -27.7291 149.0272 345° North  Level FlightAware Approximate
Sun 07:47:00 AM -27.6029 148.9886 345° North  Level FlightAware Approximate
Sun 07:48:00 AM -27.4766 148.9501 345° North  Level FlightAware Approximate
Sun 07:49:00 AM -27.3504 148.9117 345° North  Level FlightAware Approximate
Sun 07:50:00 AM -27.2241 148.8733 345° North  Level FlightAware Approximate
Sun 07:51:00 AM -27.0978 148.8350 345° North  Level FlightAware Approximate
Sun 07:52:00 AM -26.9716 148.7968 345° North  Level FlightAware Approximate
Sun 07:53:00 AM -26.8453 148.7587 345° North  Level FlightAware Approximate
Sun 07:54:00 AM -26.7190 148.7207 345° North  Level FlightAware Approximate
Sun 07:55:00 AM -26.5927 148.6828 345° North  Level FlightAware Approximate
Sun 07:56:00 AM -26.4663 148.6450 345° North  Level FlightAware Approximate
Sun 07:57:00 AM -26.3400 148.6072 345° North  Level FlightAware Approximate
Sun 07:58:00 AM -26.2137 148.5695 345° North  Level FlightAware Approximate
Sun 07:59:00 AM -26.0873 148.5319 345° North  Level FlightAware Approximate
Sun 08:00:00 AM -25.9610 148.4944 345° North  Level FlightAware Approximate
Sun 08:01:00 AM -25.8346 148.4570 345° North  Level FlightAware Approximate
Sun 08:02:00 AM -25.7082 148.4196 345° North  Level FlightAware Approximate
Sun 08:03:00 AM -25.5818 148.3823 345° North  Level FlightAware Approximate
Sun 08:04:00 AM -25.4554 148.3451 345° North  Level FlightAware Approximate
Sun 08:05:00 AM -25.3290 148.3080 345° North  Level FlightAware Approximate
Sun 08:05:20 AM -25.5200 148.4840 345° North 436 502 34,100  Level FlightAware ADS-B
Sun 08:06:00 AM -25.2026 148.2710 345° North  Level FlightAware Approximate
Sun 08:06:00 AM -25.4680 148.4680 344° North 436 502 34,100  Level FlightAware ADS-B
Sun 08:06:37 AM -25.3620 148.4380 346° North 435 501 34,100 -77 Level FlightAware ADS-B
Sun 08:07:18 AM -25.2810 148.4150 346° North 432 497 34,000 -67 Descending FlightAware ADS-B
Sun 08:08:06 AM -25.1990 148.3910 345° North 429 494 34,000  Level FlightAware ADS-B
Sun 08:08:47 AM -25.1050 148.3640 345° North 426 490 34,000  Level FlightAware ADS-B
Sun 08:09:25 AM -25.0300 148.3420 345° North 423 487 34,000  Level FlightAware ADS-B
Sun 08:10:27 AM -24.9350 148.3150 346° North 423 487 34,000  Level FlightAware ADS-B
Sun 08:10:55 AM -24.8570 148.2930 346° North 426 490 34,000 88 Level FlightAware ADS-B
Sun 08:11:35 AM -24.7810 148.2710 345° North 429 494 34,100 62 Climbing FlightAware ADS-B
Sun 08:12:32 AM -24.6630 148.2380 346° North 434 499 34,100  Level FlightAware ADS-B
Sun 08:13:14 AM -24.5830 148.2140 345° North 435 501 34,100  Level FlightAware ADS-B
Sun 08:13:41 AM -24.5320 148.2000 346° North 434 499 34,100 -92 Level FlightAware ADS-B
Sun 08:14:19 AM -24.4480 148.1770 346° North 434 499 34,000 -72 Descending FlightAware ADS-B
Sun 08:15:04 AM -24.3650 148.1530 345° North 434 499 34,000  Level FlightAware ADS-B
Sun 08:15:45 AM -24.2930 148.1320 345° North 433 498 34,000  Level FlightAware ADS-B
Sun 08:16:25 AM -24.2050 148.1080 346° North 433 498 34,000  Level FlightAware ADS-B
Sun 08:17:10 AM -24.1280 148.0860 345° North 433 498 34,000  Level FlightAware ADS-B
Sun 08:17:50 AM -24.0450 148.0620 345° North 433 498 34,000  Level FlightAware ADS-B
Sun 08:18:31 AM -23.9760 148.0430 346° North 434 499 34,000  Level FlightAware ADS-B
Sun 08:19:18 AM -23.8790 148.0160 346° North 434 499 34,000  Level FlightAware ADS-B
Sun 08:19:54 AM -23.8080 147.9950 345° North 435 501 34,000  Level FlightAware ADS-B
Sun 08:20:46 AM -23.7180 147.9700 346° North 434 499 34,000  Level FlightAware ADS-B
Sun 08:21:35 AM -23.6210 147.9430 346° North 434 499 34,000  Level FlightAware ADS-B
Sun 08:22:36 AM -23.4410 147.8920 345° North 435 501 34,000  Level FlightAware ADS-B
Sun 08:23:13 AM -23.4360 147.8920 360° North 435 501 34,000  Level FlightAware ADS-B
Sun 08:23:59 AM -23.3360 147.8630 345° North 434 499 34,000  Level FlightAware ADS-B
Sun 08:24:36 AM -23.2630 147.8440 347° North 435 501 34,000  Level FlightAware ADS-B
Sun 08:25:38 AM -23.1370 147.8080 345° North 437 503 34,000  Level FlightAware ADS-B
Sun 08:26:17 AM -23.0490 147.7840 346° North 438 504 34,000  Level FlightAware ADS-B
Sun 08:26:58 AM -22.9730 147.7630 346° North 440 506 34,000  Level FlightAware ADS-B
Sun 08:27:38 AM -22.8960 147.7410 345° North 441 507 34,000  Level FlightAware ADS-B
Sun 08:28:25 AM -22.7990 147.7150 346° North 442 509 34,000 68 Level FlightAware ADS-B
Sun 08:29:06 AM -22.7290 147.6950 345° North 443 510 34,100 74 Climbing FlightAware ADS-B
Sun 08:29:46 AM -22.6460 147.6730 346° North 445 512 34,100  Level FlightAware ADS-B
Sun 08:30:27 AM -22.5690 147.6510 345° North 447 514 34,100  Level FlightAware ADS-B
Sun 08:31:07 AM -22.4980 147.6320 346° North 448 516 34,100  Level FlightAware ADS-B
Sun 08:31:56 AM -22.4000 147.6040 345° North 448 516 34,100 -68 Level FlightAware ADS-B
Sun 08:32:35 AM -22.3130 147.5800 346° North 446 513 34,000 -74 Descending FlightAware ADS-B
Sun 08:33:17 AM -22.1600 147.5340 344° North 443 510 34,000  Level FlightAware ADS-B
Sun 08:33:59 AM -22.0760 147.5100 345° North 441 507 34,000  Level FlightAware ADS-B
Sun 08:34:41 AM -21.9940 147.4860 345° North 441 507 34,000  Level FlightAware ADS-B
Sun 08:35:19 AM -21.9180 147.4630 344° North 441 507 34,000  Level FlightAware ADS-B
Sun 08:36:05 AM -21.8940 147.4560 345° North 440 506 34,000  Level FlightAware ADS-B
Sun 08:36:44 AM -21.8170 147.4330 345° North 440 506 34,000 75 Level FlightAware ADS-B
Sun 08:37:25 AM -21.7330 147.4080 345° North 439 505 34,100  Climbing FlightAware ADS-B
Sun 08:38:13 AM -21.5740 147.3620 345° North 441 507 34,000 -67 Descending FlightAware ADS-B
Sun 08:38:54 AM -21.4950 147.3380 344° North 441 507 34,000  Level FlightAware ADS-B
Sun 08:39:35 AM -21.4230 147.3170 345° North 441 507 34,000  Level FlightAware ADS-B
Sun 08:40:18 AM -21.3280 147.2890 345° North 443 510 34,000  Level FlightAware ADS-B
Sun 08:41:16 AM -21.2500 147.2660 345° North 444 511 34,000  Level FlightAware ADS-B
Sun 08:41:52 AM -21.1890 147.2470 344° North 444 511 34,000  Level FlightAware ADS-B
Sun 08:42:38 AM -21.0490 147.2080 345° North 447 514 34,000 67 Level FlightAware ADS-B
Sun 08:43:22 AM -20.9610 147.1820 345° North 448 516 34,100 70 Climbing FlightAware ADS-B
Sun 08:44:04 AM -20.8790 147.1580 345° North 447 514 34,100  Level FlightAware ADS-B
Sun 08:44:41 AM -20.8050 147.1370 345° North 445 512 34,100 -71 Level FlightAware ADS-B
Sun 08:45:28 AM -20.7080 147.1090 345° North 443 510 34,000 -67 Descending FlightAware ADS-B
Sun 08:46:10 AM -20.6620 147.0950 344° North 443 510 34,000  Level FlightAware ADS-B
Sun 08:46:52 AM -20.5430 147.0610 345° North 441 507 34,000  Level FlightAware ADS-B
Sun 08:47:31 AM -20.4660 147.0380 344° North 443 510 34,000  Level FlightAware ADS-B
Sun 08:48:14 AM -20.3970 147.0180 345° North 445 512 34,000 71 Level FlightAware ADS-B
Sun 08:48:56 AM -20.2960 146.9890 345° North 446 513 34,100 71 Climbing FlightAware ADS-B
Sun 08:49:38 AM -20.2110 146.9650 345° North 447 514 34,100  Level FlightAware ADS-B
Sun 08:50:23 AM -20.1230 146.9390 344° North 445 512 34,100 -73 Level FlightAware ADS-B
Sun 08:51:00 AM -20.0480 146.9180 345° North 443 510 34,000 -72 Descending FlightAware ADS-B
Sun 08:51:46 AM -19.9560 146.8910 345° North 442 509 34,000  Level FlightAware ADS-B
Sun 08:52:26 AM -19.8780 146.8690 345° North 439 505 34,000  Level FlightAware ADS-B
Sun 08:53:09 AM -19.7960 146.8450 345° North 438 504 34,000  Level FlightAware ADS-B
Sun 08:53:50 AM -19.7140 146.8220 345° North 438 504 34,000  Level FlightAware ADS-B
Sun 08:54:30 AM -19.6340 146.7990 345° North 439 505 34,000  Level FlightAware ADS-B
Sun 08:54:56 AM -19.5830 146.7840 345° North 440 506 34,000 81 Level FlightAware ADS-B
Sun 08:55:44 AM -19.4960 146.7590 345° North 442 509 34,100 68 Climbing FlightAware ADS-B
Sun 08:56:24 AM -19.4090 146.7350 345° North 444 511 34,100  Level FlightAware ADS-B
Sun 08:57:02 AM -19.3320 146.7130 345° North 447 514 34,100  Level FlightAware ADS-B
Sun 08:57:48 AM -19.2400 146.6870 345° North 449 517 34,100  Level FlightAware ADS-B
Sun 08:58:28 AM -19.1610 146.6640 345° North 448 516 34,100  Level FlightAware ADS-B
Sun 08:58:59 AM -19.0970 146.6460 345° North 446 513 34,100 -85 Level FlightAware ADS-B
Sun 08:59:39 AM -19.0200 146.6240 345° North 435 501 34,000 -73 Descending FlightAware ADS-B
Sun 09:00:21 AM -18.9380 146.6010 345° North 440 506 34,000  Level FlightAware ADS-B
Sun 09:01:04 AM -18.8520 146.5770 345° North 431 496 34,000  Level FlightAware ADS-B
Sun 09:01:44 AM -18.7720 146.5540 345° North 438 504 34,000  Level FlightAware ADS-B
Sun 09:02:22 AM -18.6990 146.5330 345° North 440 506 34,000  Level FlightAware ADS-B
Sun 09:03:09 AM -18.6050 146.5060 345° North 436 502 34,000 67 Level FlightAware ADS-B
Sun 09:03:51 AM -18.5340 146.4870 346° North 437 503 34,100 86 Climbing FlightAware ADS-B
Sun 09:04:19 AM -18.4650 146.4670 345° North 446 513 34,100  Level FlightAware ADS-B
Sun 09:04:59 AM -18.3860 146.4450 345° North 448 516 34,100  Level FlightAware ADS-B
Sun 09:05:39 AM -18.3060 146.4220 345° North 450 518 34,100  Level FlightAware ADS-B
Sun 09:06:11 AM -18.2430 146.4050 346° North 450 518 34,100  Level FlightAware ADS-B
Sun 09:06:44 AM -18.1760 146.3860 345° North 449 517 34,100 -77 Level FlightAware ADS-B
Sun 09:07:29 AM -18.0830 146.3600 345° North 448 516 34,000 -71 Descending FlightAware ADS-B
Sun 09:08:09 AM -18.0020 146.3370 345° North 448 516 34,000  Level FlightAware ADS-B
Sun 09:08:55 AM -17.9110 146.3110 345° North 446 513 34,000  Level FlightAware ADS-B
Sun 09:09:35 AM -17.8300 146.2890 346° North 437 503 34,000  Level FlightAware ADS-B
Sun 09:10:05 AM -17.7720 146.2730 345° North 446 513 34,000  Level FlightAware ADS-B
Sun 09:10:41 AM -17.7030 146.2530 345° North 448 516 34,000  Level FlightAware ADS-B
Sun 09:11:42 AM -17.5990 146.2240 345° North 453 521 34,000 57 Level FlightAware ADS-B
Sun 09:12:26 AM -17.4850 146.1920 345° North 456 525 34,100 71 Climbing FlightAware ADS-B
Sun 09:13:06 AM -17.4060 146.1700 345° North 458 527 34,100  Level FlightAware ADS-B
Sun 09:13:41 AM -17.3350 146.1510 346° North 458 527 34,100 -71 Level FlightAware ADS-B
Sun 09:14:31 AM -17.2310 146.1220 345° North 458 527 34,000 -71 Descending FlightAware ADS-B
Sun 09:15:06 AM -17.1580 146.1020 345° North 458 527 34,000  Level FlightAware ADS-B
Sun 09:15:36 AM -17.0950 146.0840 345° North 458 527 34,000  Level FlightAware ADS-B
Sun 09:16:21 AM -17.0020 146.0580 345° North 457 526 34,000  Level FlightAware ADS-B
Sun 09:17:13 AM -16.9150 146.0340 345° North 458 527 34,000  Level FlightAware ADS-B
Sun 09:17:56 AM -16.8100 146.0050 345° North 458 527 34,000  Level FlightAware ADS-B
Sun 09:18:22 AM -16.7580 145.9910 346° North 459 528 34,000  Level FlightAware ADS-B
Sun 09:19:11 AM -16.6530 145.9610 345° North 461 531 34,000 58 Level FlightAware ADS-B
Sun 09:20:06 AM -16.5420 145.9310 345° North 462 532 34,100 60 Climbing FlightAware ADS-B
Sun 09:20:51 AM -16.4470 145.9050 345° North 465 535 34,100  Level FlightAware ADS-B
Sun 09:21:32 AM -16.3700 145.8830 345° North 467 537 34,100  Level FlightAware ADS-B
Sun 09:22:11 AM -16.2770 145.8580 346° North 469 540 34,100  Level FlightAware ADS-B
Sun 09:22:51 AM -16.1930 145.8350 345° North 469 540 34,100 -62 Level FlightAware ADS-B
Sun 09:23:48 AM -16.0800 145.8040 345° North 467 537 34,000 -41 Descending FlightAware ADS-B
Sun 09:25:16 AM -15.9020 145.7550 345° North 467 537 34,000  Level FlightAware ADS-B
Sun 09:25:44 AM -15.8520 145.7410 345° North 467 537 34,000  Level FlightAware ADS-B
Sun 09:26:20 AM -15.7890 145.7230 345° North 467 537 34,000  Level FlightAware ADS-B
Sun 09:27:08 AM -15.7030 145.6990 345° North 467 537 34,000  Level FlightAware ADS-B
Sun 09:27:46 AM -15.6360 145.6810 345° North 467 537 34,000  Level FlightAware ADS-B
Sun 09:28:11 AM -15.5920 145.6680 344° North 467 537 34,000  Level FlightAware ADS-B
Sun 09:29:00 AM -15.5050 145.6440 345° North 467 537 34,000  Level FlightAware ADS-B
Sun 09:29:37 AM -15.4390 145.6260 345° North 467 537 34,000  Level FlightAware ADS-B
Sun 09:30:16 AM -15.3700 145.6070 345° North 467 537 34,000  Level FlightAware ADS-B
Sun 09:30:53 AM -15.3040 145.5880 344° North 467 537 34,000  Level FlightAware ADS-B
Sun 09:31:29 AM -15.2400 145.5710 346° North 467 537 34,000  Level FlightAware ADS-B
Sun 09:32:19 AM -15.1520 145.5460 345° North 467 537 34,000  Level FlightAware ADS-B
Sun 09:32:53 AM -15.0910 145.5290 345° North 467 537 34,000  Level FlightAware ADS-B
Sun 09:33:39 AM -15.0100 145.5070 345° North 467 537 34,000 50 Level FlightAware ADS-B
Sun 09:36:00 AM -14.7183 145.4070 342° North  Level Estimated
Sun 09:37:00 AM -14.5941 145.3646 342° North  Level Estimated
Sun 09:38:00 AM -14.4699 145.3222 342° North  Level Estimated
Sun 09:39:00 AM -14.3458 145.2798 342° North  Level Estimated
Sun 09:40:00 AM -14.2216 145.2375 342° North  Level Estimated
Sun 09:41:00 AM -14.0974 145.1952 342° North  Level Estimated
Sun 09:42:00 AM -13.9732 145.1530 342° North  Level Estimated
Sun 09:43:00 AM -13.8490 145.1108 342° North  Level Estimated
Sun 09:44:00 AM -13.7248 145.0687 342° North  Level Estimated
Sun 09:45:00 AM -13.6006 145.0266 342° North  Level Estimated
Sun 09:46:00 AM -13.4763 144.9845 342° North  Level Estimated
Sun 09:47:00 AM -13.3521 144.9426 342° North  Level Estimated
Sun 09:48:00 AM -13.2279 144.9006 342° North  Level Estimated
Sun 09:49:00 AM -13.1036 144.8587 342° North  Level Estimated
Sun 09:50:00 AM -12.9794 144.8168 342° North  Level Estimated
Sun 09:51:00 AM -12.8551 144.7750 342° North  Level Estimated
Sun 09:52:00 AM -12.7308 144.7332 342° North  Level Estimated
Sun 09:53:00 AM -12.6066 144.6914 342° North  Level Estimated
Sun 09:54:00 AM -12.4823 144.6497 342° North  Level Estimated
Sun 09:55:00 AM -12.3580 144.6081 342° North  Level Estimated
Sun 09:56:00 AM -12.2337 144.5664 342° North  Level Estimated
Sun 09:57:00 AM -12.1094 144.5248 342° North  Level Estimated
Sun 09:58:00 AM -11.9851 144.4833 342° North  Level Estimated
Sun 09:59:00 AM -11.8608 144.4418 342° North  Level Estimated
Sun 10:00:00 AM -11.7365 144.4003 342° North  Level Estimated
Sun 10:01:00 AM -11.6122 144.3589 342° North  Level Estimated
Sun 10:02:00 AM -11.4878 144.3175 342° North  Level Estimated
Sun 10:03:00 AM -11.3635 144.2761 342° North  Level Estimated
Sun 10:04:00 AM -11.2392 144.2348 342° North  Level Estimated
Sun 10:05:00 AM -11.1148 144.1935 342° North  Level Estimated
Sun 10:06:00 AM -10.9904 144.1522 342° North  Level Estimated
Sun 10:07:00 AM -10.8661 144.1110 342° North  Level Estimated
Sun 10:08:00 AM -10.7417 144.0698 342° North  Level Estimated
Sun 10:09:00 AM -10.6174 144.0287 342° North  Level Estimated
Sun 10:10:00 AM -10.4930 143.9875 342° North  Level Estimated
Sun 10:11:00 AM -10.3686 143.9465 342° North  Level Estimated
Sun 10:12:00 AM -10.2442 143.9054 342° North  Level Estimated
Sun 10:12:39 AM -9.9120 144.6340 342° North 457 526 36,000  Level FlightAware ADS-B
Sun 10:13:00 AM -10.1198 143.8644 342° North  Level Estimated
Sun 10:13:03 AM -9.8690 144.6270 351° North 457 526 36,000  Level FlightAware ADS-B
Sun 10:13:50 AM -9.7860 144.6140 351° North 457 526 36,000  Level FlightAware ADS-B
Sun 10:14:14 AM -9.7430 144.6070 351° North 457 526 36,000  Level FlightAware ADS-B
Sun 10:15:00 AM -9.6620 144.5940 351° North 457 526 36,000  Level FlightAware ADS-B
Sun 10:15:58 AM -9.5590 144.5770 351° North 457 526 36,000 65 Level FlightAware ADS-B
Sun 10:16:32 AM -9.3870 144.5530 352° North 463 533 36,100 71 Climbing FlightAware ADS-B
Sun 10:17:22 AM -9.2970 144.5380 351° North 463 533 36,100  Level FlightAware ADS-B
Sun 10:17:58 AM -9.2320 144.5280 351° North 463 533 36,100  Level FlightAware ADS-B
Sun 10:18:27 AM -9.1800 144.5200 351° North 463 533 36,100  Level FlightAware ADS-B
Sun 10:19:16 AM -9.0920 144.5060 351° North 463 533 36,100  Level FlightAware ADS-B
Sun 10:19:50 AM -9.0310 144.4960 351° North 463 533 36,100  Level FlightAware ADS-B
Sun 10:20:45 AM -8.9320 144.4800 351° North 463 533 36,100 -41 Level FlightAware ADS-B
Sun 10:22:15 AM -8.6840 144.4430 352° North 453 521 36,000 -48 Descending FlightAware ADS-B
Sun 10:22:49 AM -8.6240 144.4340 352° North 453 521 36,000  Level FlightAware ADS-B
Sun 10:23:37 AM -8.5390 144.4200 351° North 453 521 36,000  Level FlightAware ADS-B
Sun 10:24:14 AM -8.4740 144.4100 351° North 453 521 36,000  Level FlightAware ADS-B
Sun 10:25:03 AM -8.3880 144.3960 351° North 453 521 36,000  Level FlightAware ADS-B
Sun 10:25:43 AM -8.3180 144.3850 351° North 453 521 36,000  Level FlightAware ADS-B
Sun 10:26:21 AM -8.2510 144.3740 351° North 453 521 36,000  Level FlightAware ADS-B
Sun 10:27:10 AM -8.1650 144.3600 351° North 453 521 36,000  Level FlightAware ADS-B
Sun 10:27:47 AM -8.1000 144.3500 351° North 453 521 36,000  Level FlightAware ADS-B
Sun 10:28:23 AM -8.0360 144.3400 351° North 453 521 36,000  Level FlightAware ADS-B
Sun 10:29:10 AM -7.9540 144.3270 351° North 453 521 36,000  Level FlightAware ADS-B
Sun 10:30:10 AM -7.8480 144.3100 351° North 453 521 36,000  Level FlightAware ADS-B
Sun 10:30:50 AM -7.7780 144.2980 350° North 453 521 36,000  Level FlightAware ADS-B
Sun 10:33:00 AM -7.4971 144.2607 352° North  Level FlightAware Approximate
Sun 10:34:00 AM -7.3670 144.2483 358° North  Level FlightAware Approximate
Sun 10:35:00 AM -7.2363 144.2439 358° North  Level FlightAware Approximate
Sun 10:36:00 AM -7.1056 144.2394 358° North  Level FlightAware Approximate
Sun 10:37:00 AM -6.9749 144.2350 358° North  Level FlightAware Approximate
Sun 10:38:00 AM -6.8442 144.2305 358° North  Level FlightAware Approximate
Sun 10:39:00 AM -6.7135 144.2261 358° North  Level FlightAware Approximate
Sun 10:40:00 AM -6.5828 144.2216 358° North  Level FlightAware Approximate
Sun 10:41:00 AM -6.4521 144.2172 358° North  Level FlightAware Approximate
Sun 10:42:00 AM -6.3214 144.2128 358° North  Level FlightAware Approximate
Sun 10:43:00 AM -6.1907 144.2083 358° North  Level FlightAware Approximate
Sun 10:44:00 AM -6.0600 144.2039 358° North  Level FlightAware Approximate
Sun 10:45:00 AM -5.9293 144.1995 358° North  Level FlightAware Approximate
Sun 10:46:00 AM -5.7986 144.1950 358° North  Level FlightAware Approximate
Sun 10:47:00 AM -5.6679 144.1906 358° North  Level FlightAware Approximate
Sun 10:48:00 AM -5.5372 144.1862 358° North  Level FlightAware Approximate
Sun 10:49:00 AM -5.4065 144.1818 358° North  Level FlightAware Approximate
Sun 10:50:00 AM -5.2758 144.1773 358° North  Level FlightAware Approximate
Sun 10:51:00 AM -5.1451 144.1729 358° North  Level FlightAware Approximate
Sun 10:52:00 AM -5.0144 144.1685 358° North  Level FlightAware Approximate
Sun 10:53:00 AM -4.8837 144.1641 358° North  Level FlightAware Approximate
Sun 10:54:00 AM -4.7530 144.1597 358° North  Level FlightAware Approximate
Sun 10:55:00 AM -4.6223 144.1553 358° North  Level FlightAware Approximate
Sun 10:56:00 AM -4.4916 144.1509 358° North  Level FlightAware Approximate
Sun 10:57:00 AM -4.3609 144.1465 358° North  Level FlightAware Approximate
Sun 10:58:00 AM -4.2302 144.1420 358° North  Level FlightAware Approximate
Sun 10:59:00 AM -4.0995 144.1376 358° North  Level FlightAware Approximate
Sun 11:00:00 AM -3.9688 144.1332 358° North  Level FlightAware Approximate
Sun 11:01:00 AM -3.8381 144.1288 358° North  Level FlightAware Approximate
Sun 11:02:00 AM -3.7074 144.1244 358° North  Level FlightAware Approximate
Sun 11:03:00 AM -3.5767 144.1200 358° North  Level FlightAware Approximate
Sun 11:04:00 AM -3.4460 144.1156 358° North  Level FlightAware Approximate
Sun 11:05:00 AM -3.3153 144.1112 358° North  Level FlightAware Approximate
Sun 11:06:00 AM -3.1846 144.1069 358° North  Level FlightAware Approximate
Sun 11:07:00 AM -3.0539 144.1025 358° North  Level FlightAware Approximate
Sun 11:08:00 AM -2.9232 144.0981 358° North  Level FlightAware Approximate
Sun 11:09:00 AM -2.7925 144.0937 358° North  Level FlightAware Approximate
Sun 11:10:00 AM -2.6618 144.0893 358° North  Level FlightAware Approximate
Sun 11:11:00 AM -2.5311 144.0849 358° North  Level FlightAware Approximate
Sun 11:12:00 AM -2.4004 144.0805 358° North  Level FlightAware Approximate
Sun 11:13:00 AM -2.2697 144.0761 358° North  Level FlightAware Approximate
Sun 11:14:00 AM -2.1390 144.0717 358° North  Level FlightAware Approximate
Sun 11:15:00 AM -2.0083 144.0673 358° North  Level FlightAware Approximate
Sun 11:16:00 AM -1.8776 144.0629 358° North  Level FlightAware Approximate
Sun 11:17:00 AM -1.7469 144.0586 358° North  Level FlightAware Approximate
Sun 11:18:00 AM -1.6162 144.0542 358° North  Level FlightAware Approximate
Sun 11:19:00 AM -1.4855 144.0498 358° North  Level FlightAware Approximate
Sun 11:20:00 AM -1.3548 144.0454 358° North  Level FlightAware Approximate
Sun 11:21:00 AM -1.2241 144.0410 358° North  Level FlightAware Approximate
Sun 11:22:00 AM -1.0934 144.0367 358° North  Level FlightAware Approximate
Sun 11:23:00 AM -0.9627 144.0323 358° North  Level FlightAware Approximate
Sun 11:24:00 AM -0.8320 144.0279 358° North  Level FlightAware Approximate
Sun 11:25:00 AM -0.7013 144.0235 358° North  Level FlightAware Approximate
Sun 11:26:00 AM -0.5706 144.0191 358° North  Level FlightAware Approximate
Sun 11:27:00 AM -0.4399 144.0148 358° North  Level FlightAware Approximate
Sun 11:28:00 AM -0.3092 144.0104 358° North  Level FlightAware Approximate
Sun 11:29:00 AM -0.1785 144.0060 358° North  Level FlightAware Approximate
Sun 11:29:06 AM 0.0000 144.0000 356° North 451 519 36,000  Level Oakland Oceanic (ODAPS)
Sun 11:30:00 AM -0.0478 144.0016 358° North  Level FlightAware Approximate
Sun 11:31:00 AM 0.0830 143.9937 356° North  Level FlightAware Approximate
Sun 11:32:00 AM 0.2134 143.9837 356° North  Level FlightAware Approximate
Sun 11:33:00 AM 0.3438 143.9737 356° North  Level FlightAware Approximate
Sun 11:34:00 AM 0.4742 143.9637 356° North  Level FlightAware Approximate
Sun 11:35:00 AM 0.7500 143.9426 356° North 451 519 36,000  Level FlightAware Transoceanic
Sun 11:36:00 AM 0.8750 143.9331 356° North 451 519 36,000  Level FlightAware Transoceanic
Sun 11:37:00 AM 1.0000 143.9235 356° North 451 519 36,000  Level FlightAware Transoceanic
Sun 11:37:58 AM 1.1333 143.9167 356° North 449 517 36,000  Level Oakland Oceanic (ODAPS)
Sun 11:38:00 AM 1.1250 143.9140 356° North 451 519 36,000  Level FlightAware Transoceanic
Sun 11:39:00 AM 1.2500 143.9044 356° North 451 519 36,000  Level FlightAware Transoceanic
Sun 11:40:00 AM 1.3750 143.8948 356° North 451 519 36,000  Level FlightAware Transoceanic
Sun 11:41:00 AM 1.5000 143.8853 356° North 451 519 36,000  Level FlightAware Transoceanic
Sun 11:42:00 AM 1.6250 143.8757 356° North 451 519 36,000  Level FlightAware Transoceanic
Sun 11:43:00 AM 1.7500 143.8661 356° North 451 519 36,000  Level FlightAware Transoceanic
Sun 11:44:00 AM 1.8817 143.8587 356° North 449 517 36,000  Level FlightAware Transoceanic
Sun 11:45:00 AM 2.0065 143.8491 356° North 449 517 36,000  Level FlightAware Transoceanic
Sun 11:45:34 AM 2.1000 143.8333 356° North 446 513 36,000  Level Oakland Oceanic (ODAPS)
Sun 11:45:49 AM 2.1000 143.8333 356° North 447 514 36,000  Level Oakland Oceanic (ODAPS)
Sun 11:46:00 AM 2.1312 143.8394 356° North 449 517 36,000  Level FlightAware Transoceanic
Sun 11:46:04 AM 2.1500 143.8333 356° North 445 512 36,000  Level Oakland Oceanic (ODAPS)
Sun 11:47:00 AM 2.2559 143.8298 356° North 449 517 36,000  Level FlightAware Transoceanic
Sun 11:48:00 AM 2.3807 143.8201 356° North 449 517 36,000  Level FlightAware Transoceanic
Sun 11:49:00 AM 2.5054 143.8105 356° North 449 517 36,000  Level FlightAware Transoceanic
Sun 11:50:00 AM 2.6301 143.8008 356° North 449 517 36,000  Level FlightAware Transoceanic
Sun 11:51:00 AM 2.7548 143.7911 356° North 449 517 36,000  Level FlightAware Transoceanic
Sun 11:51:50 AM 2.8667 143.7833 356° North 454 522 36,000  Level Oakland Oceanic (ODAPS)
Sun 11:52:00 AM 2.8935 143.7769 356° North 445 512 36,000  Level FlightAware Transoceanic
Sun 11:53:00 AM 3.0174 143.7675 356° North 445 512 36,000  Level FlightAware Transoceanic
Sun 11:54:00 AM 3.1413 143.7581 356° North 445 512 36,000  Level FlightAware Transoceanic
Sun 11:55:00 AM 3.2652 143.7487 356° North 445 512 36,000  Level FlightAware Transoceanic
Sun 11:56:00 AM 3.3891 143.7393 356° North 445 512 36,000  Level FlightAware Transoceanic
Sun 11:57:00 AM 3.5131 143.7299 356° North 445 512 36,000  Level FlightAware Transoceanic
Sun 11:57:03 AM 3.5167 143.7333 356° North 447 514 36,000  Level Oakland Oceanic (ODAPS)
Sun 11:58:00 AM 3.6196 143.7246 356° North 454 522 36,000  Level FlightAware Transoceanic
Sun 11:59:00 AM 3.7451 143.7148 356° North 454 522 36,000  Level FlightAware Transoceanic
Sun 12:00:00 PM 3.8706 143.7050 356° North 454 522 36,000  Level FlightAware Transoceanic
Sun 12:01:00 PM 3.9961 143.6952 356° North 454 522 36,000  Level FlightAware Transoceanic
Sun 12:02:00 PM 4.1216 143.6854 356° North 454 522 36,000  Level FlightAware Transoceanic
Sun 12:03:00 PM 4.2583 143.6751 356° North 447 514 36,000  Level FlightAware Transoceanic
Sun 12:04:00 PM 4.3819 143.6653 356° North 447 514 36,000  Level FlightAware Transoceanic
Sun 12:05:00 PM 4.5056 143.6556 356° North 447 514 36,000  Level FlightAware Transoceanic
Sun 12:06:00 PM 4.6292 143.6459 356° North 447 514 36,000  Level FlightAware Transoceanic
Sun 12:06:02 PM 4.6333 143.6500 355° North 453 521 36,000  Level Oakland Oceanic (ODAPS)
Sun 12:06:51 PM 4.7500 143.6333 356° North 455 524 36,000  Level Oakland Oceanic (ODAPS)
Sun 12:07:00 PM 4.7528 143.6361 356° North 447 514 36,000  Level FlightAware Transoceanic
Sun 12:08:00 PM 4.8764 143.6264 356° North 447 514 36,000  Level FlightAware Transoceanic
Sun 12:08:33 PM 5.0000 143.6167 351° North 451 519 36,000  Level Oakland Oceanic (ODAPS)
Sun 12:09:00 PM 5.0000 143.6167 351° North 447 514 36,000  Level FlightAware Transoceanic
Sun 12:09:15 PM 5.1000 143.6000 351° North 447 514 36,000  Level Oakland Oceanic (ODAPS)
Sun 12:10:00 PM 5.1320 143.5957 351° North 447 514 36,000  Level FlightAware Transoceanic
Sun 12:11:00 PM 5.2640 143.5747 351° North 447 514 36,000  Level FlightAware Transoceanic
Sun 12:12:00 PM 5.5141 143.5350 351° North 453 521 36,000  Level FlightAware Transoceanic
Sun 12:12:39 PM 5.4667 143.5333 351° North 453 521 36,000  Level Oakland Oceanic (ODAPS)
Sun 12:13:00 PM 5.6600 143.5117 351° North 455 524 36,000  Level FlightAware Transoceanic
Sun 12:14:00 PM 5.7920 143.4907 351° North 455 524 36,000  Level FlightAware Transoceanic
Sun 12:15:00 PM 5.8360 143.4831 351° North 447 514 36,000  Level FlightAware Transoceanic
Sun 12:16:00 PM 5.9586 143.4635 351° North 447 514 36,000  Level FlightAware Transoceanic
Sun 12:17:00 PM 6.0813 143.4440 351° North 447 514 36,000  Level FlightAware Transoceanic
Sun 12:18:00 PM 6.2028 143.4176 351° North 453 521 36,000  Level FlightAware Transoceanic
Sun 12:19:00 PM 6.3256 143.3983 351° North 453 521 36,000  Level FlightAware Transoceanic
Sun 12:19:35 PM 6.3833 143.4000 351° North 462 532 36,000  Level Oakland Oceanic (ODAPS)
Sun 12:20:00 PM 6.4482 143.3790 351° North 453 521 36,000  Level FlightAware Transoceanic
Sun 12:21:00 PM 6.5709 143.3596 351° North 453 521 36,000  Level FlightAware Transoceanic
Sun 12:22:00 PM 6.6936 143.3403 351° North 453 521 36,000  Level FlightAware Transoceanic
Sun 12:23:00 PM 6.8163 143.3209 351° North 453 521 36,000  Level FlightAware Transoceanic
Sun 12:24:00 PM 6.9390 143.3016 351° North 453 521 36,000  Level FlightAware Transoceanic
Sun 12:25:00 PM 7.1334 143.2794 351° North 462 532 36,000  Level FlightAware Transoceanic
Sun 12:26:00 PM 7.2584 143.2592 351° North 462 532 36,000  Level FlightAware Transoceanic
Sun 12:27:00 PM 7.3834 143.2391 351° North 462 532 36,000  Level FlightAware Transoceanic
Sun 12:28:00 PM 7.5084 143.2189 351° North 462 532 36,000  Level FlightAware Transoceanic
Sun 12:29:00 PM 7.6334 143.1987 351° North 462 532 36,000  Level FlightAware Transoceanic
Sun 12:30:00 PM 7.7584 143.1785 351° North 462 532 36,000  Level FlightAware Transoceanic
Sun 12:31:00 PM 7.8834 143.1583 351° North 462 532 36,000  Level FlightAware Transoceanic
Sun 12:32:00 PM 8.0084 143.1381 351° North 462 532 36,000  Level FlightAware Transoceanic
Sun 12:33:00 PM 8.1334 143.1179 351° North 462 532 36,000  Level FlightAware Transoceanic
Sun 12:33:26 PM 8.2333 143.1000 351° North 464 534 36,000  Level Oakland Oceanic (ODAPS)
Sun 12:34:00 PM 8.2584 143.0977 351° North 462 532 36,000  Level FlightAware Transoceanic
Sun 12:35:00 PM 8.3834 143.0774 351° North 462 532 36,000  Level FlightAware Transoceanic
Sun 12:36:00 PM 8.5084 143.0571 351° North 462 532 36,000  Level FlightAware Transoceanic
Sun 12:37:00 PM 8.6334 143.0369 351° North 462 532 36,000  Level FlightAware Transoceanic
Sun 12:38:00 PM 8.7584 143.0166 351° North 462 532 36,000  Level FlightAware Transoceanic
Sun 12:39:00 PM 8.9949 142.9772 351° North 464 534 36,000  Level FlightAware Transoceanic
Sun 12:40:00 PM 9.1218 142.9567 351° North 464 534 36,000  Level FlightAware Transoceanic
Sun 12:41:00 PM 9.2487 142.9362 351° North 464 534 36,000  Level FlightAware Transoceanic
Sun 12:42:00 PM 9.3757 142.9156 351° North 464 534 36,000  Level FlightAware Transoceanic
Sun 12:43:00 PM 9.5026 142.8951 351° North 464 534 36,000  Level FlightAware Transoceanic
Sun 12:44:00 PM 9.6295 142.8745 351° North 464 534 36,000  Level FlightAware Transoceanic
Sun 12:45:00 PM 9.7564 142.8539 351° North 464 534 36,000  Level FlightAware Transoceanic
Sun 12:46:00 PM 9.8833 142.8333 356° North 464 534 36,000  Level FlightAware Transoceanic
Sun 12:46:11 PM 9.9500 142.8667 356° North 490 564 36,000  Level Guam Center
Sun 12:47:00 PM 10.0148 142.8251 356° North 464 534 36,000  Level FlightAware Transoceanic
Sun 12:47:11 PM 10.0833 142.8333 346° North 500 575 36,000  Level Guam Center
Sun 12:48:00 PM 10.1463 142.8168 356° North 464 534 36,000  Level FlightAware Transoceanic
Sun 12:48:11 PM 10.2167 142.8167 353° North 490 564 36,000  Level Guam Center
Sun 12:49:00 PM 10.2778 142.8085 356° North 464 534 36,000  Level FlightAware Transoceanic
Sun 12:49:11 PM 10.3500 142.8000 353° North 480 552 36,000  Level Guam Center
Sun 12:50:00 PM 10.4093 142.8002 356° North 464 534 36,000  Level FlightAware Transoceanic
Sun 12:50:12 PM 10.4833 142.7833 353° North 470 541 36,000  Level Guam Center
Sun 12:51:00 PM 10.5407 142.7919 356° North 464 534 36,000  Level FlightAware Transoceanic
Sun 12:51:12 PM 10.6167 142.7667 353° North 480 552 36,000  Level Guam Center
Sun 12:52:12 PM 10.7500 142.7500 353° North 480 552 36,000  Level Guam Center
Sun 12:53:12 PM 10.8833 142.7333 353° North 480 552 36,000  Level Guam Center
Sun 12:54:12 PM 11.0167 142.7000 346° North 490 564 36,000  Level Guam Center
Sun 12:55:12 PM 11.1500 142.6833 353° North 480 552 36,000  Level Guam Center
Sun 12:56:12 PM 11.2833 142.6667 353° North 480 552 36,000  Level Guam Center
Sun 12:57:13 PM 11.4167 142.6500 353° North 480 552 36,000  Level Guam Center
Sun 12:58:13 PM 11.5500 142.6333 353° North 480 552 36,000  Level Guam Center
Sun 12:59:13 PM 11.6667 142.6167 352° North 470 541 36,000  Level Guam Center
Sun 01:00:13 PM 11.8000 142.6000 353° North 480 552 36,000  Level Guam Center
Sun 01:01:13 PM 11.9333 142.5833 353° North 470 541 36,000  Level Guam Center
Sun 01:02:13 PM 12.0667 142.5667 353° North 460 529 36,000  Level Guam Center
Sun 01:03:14 PM 12.2000 142.5500 353° North 470 541 36,000  Level Guam Center
Sun 01:04:14 PM 12.3167 142.5333 352° North 460 529 36,000  Level Guam Center
Sun 01:05:13 PM 12.4500 142.5167 353° North 450 518 36,000  Level Guam Center
Sun 01:06:14 PM 12.5667 142.4833 344° North 470 541 36,000  Level Guam Center
Sun 01:07:14 PM 12.7000 142.4667 353° North 470 541 36,000  Level Guam Center
Sun 01:08:14 PM 12.8333 142.4500 353° North 470 541 36,000  Level Guam Center
Sun 01:09:14 PM 12.9667 142.4333 353° North 470 541 36,000  Level Guam Center
Sun 01:10:14 PM 13.0833 142.4167 352° North 450 518 36,000  Level Guam Center
Sun 01:11:14 PM 13.2167 142.4000 353° North 450 518 36,000  Level Guam Center
Sun 01:12:14 PM 13.3333 142.3833 352° North 450 518 36,000  Level Guam Center
Sun 01:13:15 PM 13.4667 142.3667 353° North 460 529 36,000  Level Guam Center
Sun 01:14:15 PM 13.6000 142.3500 353° North 460 529 36,000  Level Guam Center
Sun 01:15:15 PM 13.7167 142.3333 352° North 450 518 36,000  Level Guam Center
Sun 01:16:15 PM 13.8500 142.3167 353° North 450 518 36,000  Level Guam Center
Sun 01:17:15 PM 13.9667 142.3000 352° North 440 506 36,000  Level Guam Center
Sun 01:18:15 PM 14.0833 142.2833 352° North 440 506 36,000  Level Guam Center
Sun 01:19:16 PM 14.2000 142.2667 352° North 440 506 36,000  Level Guam Center
Sun 01:20:16 PM 14.3333 142.2500 353° North 450 518 36,000  Level Guam Center
Sun 01:21:16 PM 14.4500 142.2333 352° North 450 518 36,000  Level Guam Center
Sun 01:22:16 PM 14.5833 142.2167 353° North 450 518 36,000  Level Guam Center
Sun 01:23:16 PM 14.7000 142.2000 352° North 450 518 36,000  Level Guam Center
Sun 01:24:16 PM 14.8167 142.1833 352° North 440 506 36,000  Level Guam Center
Sun 01:25:16 PM 14.9500 142.1667 353° North 440 506 36,000  Level Guam Center
Sun 01:26:17 PM 15.0667 142.1500 352° North 440 506 36,000  Level Guam Center
Sun 01:27:17 PM 15.2000 142.1333 353° North 450 518 36,000  Level Guam Center
Sun 01:28:17 PM 15.3167 142.1000 345° North 450 518 36,000  Level Guam Center
Sun 01:29:17 PM 15.4500 142.0833 353° North 450 518 36,000  Level Guam Center
Sun 01:30:17 PM 15.5667 142.0667 352° North 450 518 36,000  Level Guam Center
Sun 01:31:17 PM 15.7000 142.0500 353° North 450 518 36,000  Level Guam Center
Sun 01:34:00 PM 15.9098 142.0244 353° North  Level FlightAware Approximate
Sun 01:38:24 PM 16.5833 141.9500 319° Northwest 428 493 36,000  Level Oakland Oceanic (ODAPS)
Sun 01:41:00 PM 16.7212 141.8044 319° Northwest  Level FlightAware Approximate
Sun 01:42:00 PM 16.8154 141.7197 319° Northwest  Level FlightAware Approximate
Sun 01:43:00 PM 16.9095 141.6349 319° Northwest  Level FlightAware Approximate
Sun 01:44:00 PM 17.1180 141.4651 319° Northwest 428 493 36,000  Level FlightAware Transoceanic
Sun 01:44:50 PM 17.1833 141.4000 319° Northwest 429 494 36,000  Level Oakland Oceanic (ODAPS)
Sun 01:45:00 PM 17.2069 141.3840 319° Northwest 428 493 36,000  Level FlightAware Transoceanic
Sun 01:46:00 PM 17.2959 141.3028 319° Northwest 428 493 36,000  Level FlightAware Transoceanic
Sun 01:47:00 PM 17.3848 141.2215 319° Northwest 428 493 36,000  Level FlightAware Transoceanic
Sun 01:48:00 PM 17.4737 141.1402 319° Northwest 428 493 36,000  Level FlightAware Transoceanic
Sun 01:49:00 PM 17.5626 141.0588 319° Northwest 428 493 36,000  Level FlightAware Transoceanic
Sun 01:50:00 PM 17.6514 140.9773 319° Northwest 428 493 36,000  Level FlightAware Transoceanic
Sun 01:51:00 PM 17.7327 140.8979 319° Northwest 429 494 36,000  Level FlightAware Transoceanic
Sun 01:52:00 PM 17.8241 140.8139 319° Northwest 429 494 36,000  Level FlightAware Transoceanic
Sun 01:53:00 PM 17.9155 140.7299 319° Northwest 429 494 36,000  Level FlightAware Transoceanic
Sun 01:54:00 PM 18.0069 140.6457 319° Northwest 429 494 36,000  Level FlightAware Transoceanic
Sun 01:55:00 PM 18.0982 140.5615 319° Northwest 429 494 36,000  Level FlightAware Transoceanic
Sun 01:56:00 PM 18.1895 140.4772 319° Northwest 429 494 36,000  Level FlightAware Transoceanic
Sun 01:57:00 PM 18.2808 140.3928 319° Northwest 429 494 36,000  Level FlightAware Transoceanic
Sun 01:58:00 PM 18.3720 140.3083 319° Northwest 429 494 36,000  Level FlightAware Transoceanic
Sun 01:58:40 PM 18.5000 140.2000 318° Northwest 431 496 36,000  Level Oakland Oceanic (ODAPS)
Sun 01:59:00 PM 18.4631 140.2237 319° Northwest 429 494 36,000  Level FlightAware Transoceanic
Sun 02:00:00 PM 18.5543 140.1390 319° Northwest 429 494 36,000  Level FlightAware Transoceanic
Sun 02:01:00 PM 18.6454 140.0542 319° Northwest 429 494 36,000  Level FlightAware Transoceanic
Sun 02:02:00 PM 18.7365 139.9694 319° Northwest 429 494 36,000  Level FlightAware Transoceanic
Sun 02:03:00 PM 18.8275 139.8844 319° Northwest 429 494 36,000  Level FlightAware Transoceanic
Sun 02:04:00 PM 18.9185 139.7994 318° Northwest 429 494 36,000  Level FlightAware Transoceanic
Sun 02:05:00 PM 19.1279 139.6111 318° Northwest 431 496 36,000  Level FlightAware Transoceanic
Sun 02:06:00 PM 19.2175 139.5266 318° Northwest 431 496 36,000  Level FlightAware Transoceanic
Sun 02:07:00 PM 19.3070 139.4420 318° Northwest 431 496 36,000  Level FlightAware Transoceanic
Sun 02:08:00 PM 19.3965 139.3573 318° Northwest 431 496 36,000  Level FlightAware Transoceanic
Sun 02:09:00 PM 19.4859 139.2726 318° Northwest 431 496 36,000  Level FlightAware Transoceanic
Sun 02:10:00 PM 19.5753 139.1877 318° Northwest 431 496 36,000  Level FlightAware Transoceanic
Sun 02:11:00 PM 19.6646 139.1027 318° Northwest 431 496 36,000  Level FlightAware Transoceanic
Sun 02:12:00 PM 19.7539 139.0177 318° Northwest 431 496 36,000  Level FlightAware Transoceanic
Sun 02:12:32 PM 19.7833 139.0000 318° Northwest 426 490 36,000  Level Oakland Oceanic (ODAPS)
Sun 02:13:00 PM 19.8432 138.9325 318° Northwest 431 496 36,000  Level FlightAware Transoceanic
Sun 02:14:00 PM 19.9324 138.8473 318° Northwest 431 496 36,000  Level FlightAware Transoceanic
Sun 02:15:00 PM 20.0216 138.7619 318° Northwest 431 496 36,000  Level FlightAware Transoceanic
Sun 02:16:00 PM 20.1108 138.6765 318° Northwest 431 496 36,000  Level FlightAware Transoceanic
Sun 02:17:00 PM 20.1999 138.5910 318° Northwest 431 496 36,000  Level FlightAware Transoceanic
Sun 02:18:00 PM 20.3057 138.4951 318° Northwest 426 490 36,000  Level FlightAware Transoceanic
Sun 02:19:00 PM 20.3927 138.4107 318° Northwest 426 490 36,000  Level FlightAware Transoceanic
Sun 02:20:00 PM 20.4795 138.3261 318° Northwest 426 490 36,000  Level FlightAware Transoceanic
Sun 02:21:00 PM 20.5664 138.2414 318° Northwest 426 490 36,000  Level FlightAware Transoceanic
Sun 02:22:00 PM 20.6532 138.1567 318° Northwest 426 490 36,000  Level FlightAware Transoceanic
Sun 02:23:00 PM 20.7400 138.0718 318° Northwest 426 490 36,000  Level FlightAware Transoceanic
Sun 02:24:00 PM 20.8267 137.9869 317° Northwest 426 490 36,000  Level FlightAware Transoceanic
Sun 02:25:00 PM 20.9134 137.9018 317° Northwest 426 490 36,000  Level FlightAware Transoceanic
Sun 02:26:00 PM 21.0000 137.8167 330° Northwest 426 490 36,000  Level FlightAware Transoceanic
Sun 02:27:00 PM 21.1103 137.7497 330° Northwest 426 490 36,000  Level FlightAware Transoceanic
Sun 02:28:00 PM 21.2206 137.6827 330° Northwest 426 490 36,000  Level FlightAware Transoceanic
Sun 02:29:00 PM 21.3309 137.6156 330° Northwest 426 490 36,000  Level FlightAware Transoceanic
Sun 02:30:00 PM 21.4412 137.5484 330° Northwest 426 490 36,000  Level FlightAware Transoceanic
Sun 02:31:00 PM 21.5514 137.4810 330° Northwest 426 490 36,000  Level FlightAware Transoceanic
Sun 02:32:00 PM 21.6616 137.4136 330° Northwest 426 490 36,000  Level FlightAware Transoceanic
Sun 02:33:00 PM 21.7718 137.3461 330° Northwest 426 490 36,000  Level FlightAware Transoceanic
Sun 02:34:00 PM 21.8819 137.2784 330° Northwest 426 490 36,000  Level FlightAware Transoceanic
Sun 02:35:00 PM 21.9920 137.2107 330° Northwest 426 490 36,000  Level FlightAware Transoceanic
Sun 02:36:00 PM 22.1021 137.1429 330° Northwest 426 490 36,000  Level FlightAware Transoceanic
Sun 02:37:00 PM 22.2122 137.0749 330° Northwest 426 490 36,000  Level FlightAware Transoceanic
Sun 02:38:00 PM 22.3222 137.0068 330° Northwest 426 490 36,000  Level FlightAware Transoceanic
Sun 02:39:00 PM 22.4322 136.9387 330° Northwest 426 490 36,000  Level FlightAware Transoceanic
Sun 02:40:00 PM 22.5422 136.8704 330° Northwest 426 490 36,000  Level FlightAware Transoceanic
Sun 02:41:00 PM 22.6522 136.8020 330° Northwest 426 490 36,000  Level FlightAware Transoceanic
Sun 02:42:00 PM 22.7621 136.7335 330° Northwest 426 490 36,000  Level FlightAware Transoceanic
Sun 02:43:00 PM 22.8720 136.6649 330° Northwest 426 490 36,000  Level FlightAware Transoceanic
Sun 02:44:00 PM 22.9818 136.5962 330° Northwest 426 490 36,000  Level FlightAware Transoceanic
Sun 02:45:00 PM 23.0917 136.5274 330° Northwest 426 490 36,000  Level FlightAware Transoceanic
Sun 02:46:00 PM 23.2015 136.4584 330° Northwest 426 490 36,000  Level FlightAware Transoceanic
Sun 02:47:00 PM 23.3112 136.3894 330° Northwest 426 490 36,000  Level FlightAware Transoceanic
Sun 02:48:00 PM 23.4210 136.3202 330° Northwest 426 490 36,000  Level FlightAware Transoceanic
Sun 02:49:00 PM 23.5307 136.2509 330° Northwest 426 490 36,000  Level FlightAware Transoceanic
Sun 02:50:00 PM 23.6404 136.1815 330° Northwest 426 490 36,000  Level FlightAware Transoceanic
Sun 02:51:00 PM 23.7500 136.1120 330° Northwest 426 490 36,000  Level FlightAware Transoceanic
Sun 02:52:00 PM 23.8596 136.0424 330° Northwest 426 490 36,000  Level FlightAware Transoceanic
Sun 02:53:00 PM 23.9692 135.9726 330° Northwest 426 490 36,000  Level FlightAware Transoceanic
Sun 02:54:00 PM 24.0788 135.9028 330° Northwest 426 490 36,000  Level FlightAware Transoceanic
Sun 02:55:00 PM 24.1883 135.8328 330° Northwest 426 490 36,000  Level FlightAware Transoceanic
Sun 02:56:00 PM 24.2978 135.7627 330° Northwest 426 490 36,000  Level FlightAware Transoceanic
Sun 02:57:00 PM 24.4072 135.6924 330° Northwest 426 490 36,000  Level FlightAware Transoceanic
Sun 02:58:00 PM 24.5167 135.6221 330° Northwest 426 490 36,000  Level FlightAware Transoceanic
Sun 02:59:00 PM 24.6261 135.5516 330° Northwest 426 490 36,000  Level FlightAware Transoceanic
Sun 03:00:00 PM 24.7354 135.4810 330° Northwest 426 490 36,000  Level FlightAware Transoceanic
Sun 03:01:00 PM 24.8447 135.4103 330° Northwest 426 490 36,000  Level FlightAware Transoceanic
Sun 03:02:00 PM 24.9540 135.3395 330° Northwest 426 490 36,000  Level FlightAware Transoceanic
Sun 03:03:00 PM 25.0633 135.2685 330° Northwest 426 490 36,000  Level FlightAware Transoceanic
Sun 03:04:00 PM 25.1725 135.1974 329° Northwest 426 490 36,000  Level FlightAware Transoceanic
Sun 03:05:00 PM 25.2817 135.1262 329° Northwest 426 490 36,000  Level FlightAware Transoceanic
Sun 03:06:00 PM 25.3909 135.0548 329° Northwest 426 490 36,000 -19 Level FlightAware Transoceanic
Sun 03:07:00 PM 25.4970 134.9841 329° Northwest  Level FlightAware Approximate
Sun 03:08:00 PM 25.6031 134.9132 329° Northwest  Level FlightAware Approximate
Sun 03:09:00 PM 25.7092 134.8422 329° Northwest  Level FlightAware Approximate
Sun 03:10:00 PM 25.8152 134.7711 329° Northwest  Level FlightAware Approximate
Sun 03:11:00 PM 25.9212 134.6999 329° Northwest  Level FlightAware Approximate
Sun 03:12:00 PM 26.0271 134.6285 329° Northwest  Level FlightAware Approximate
Sun 03:13:00 PM 26.1331 134.5570 329° Northwest  Level FlightAware Approximate
Sun 03:14:00 PM 26.2390 134.4854 329° Northwest  Level FlightAware Approximate
Sun 03:15:00 PM 26.3448 134.4136 329° Northwest  Level FlightAware Approximate
Sun 03:16:00 PM 26.4506 134.3417 329° Northwest  Level FlightAware Approximate
Sun 03:17:00 PM 26.5564 134.2697 329° Northwest  Level FlightAware Approximate
Sun 03:18:00 PM 26.6622 134.1976 329° Northwest  Level FlightAware Approximate
Sun 03:19:00 PM 26.7679 134.1253 329° Northwest  Level FlightAware Approximate
Sun 03:20:00 PM 26.8735 134.0529 329° Northwest  Level FlightAware Approximate
Sun 03:21:00 PM 26.9792 133.9803 329° Northwest  Level FlightAware Approximate
Sun 03:22:00 PM 27.0848 133.9076 329° Northwest  Level FlightAware Approximate
Sun 03:23:00 PM 27.1903 133.8348 328° Northwest  Level FlightAware Approximate
Sun 03:24:00 PM 27.2959 133.7618 328° Northwest  Level FlightAware Approximate
Sun 03:25:00 PM 27.4014 133.6887 328° Northwest  Level FlightAware Approximate
Sun 03:26:00 PM 27.5068 133.6154 328° Northwest  Level FlightAware Approximate
Sun 03:27:00 PM 27.6122 133.5421 328° Northwest  Level FlightAware Approximate
Sun 03:28:00 PM 27.7176 133.4685 328° Northwest  Level FlightAware Approximate
Sun 03:29:00 PM 27.8229 133.3949 328° Northwest  Level FlightAware Approximate
Sun 03:30:00 PM 27.9282 133.3210 328° Northwest  Level FlightAware Approximate
Sun 03:31:00 PM 28.0334 133.2471 328° Northwest  Level FlightAware Approximate
Sun 03:32:00 PM 28.1387 133.1730 328° Northwest  Level FlightAware Approximate
Sun 03:33:00 PM 28.2438 133.0988 328° Northwest  Level FlightAware Approximate
Sun 03:34:00 PM 28.3490 133.0244 328° Northwest  Level FlightAware Approximate
Sun 03:35:00 PM 28.4541 132.9498 328° Northwest  Level FlightAware Approximate
Sun 03:36:00 PM 28.4516 132.9515 328° Northwest  Level FlightAware Approximate
Sun 03:37:00 PM 28.5566 132.8768 328° Northwest  Level FlightAware Approximate
Sun 03:38:00 PM 28.6616 132.8019 328° Northwest  Level FlightAware Approximate
Sun 03:39:00 PM 28.7666 132.7268 328° Northwest  Level FlightAware Approximate
Sun 03:40:00 PM 28.8715 132.6517 328° Northwest  Level FlightAware Approximate
Sun 03:41:00 PM 28.9763 132.5763 328° Northwest  Level FlightAware Approximate
Sun 03:42:00 PM 29.0811 132.5008 328° Northwest  Level FlightAware Approximate
Sun 03:43:00 PM 29.1859 132.4252 328° Northwest  Level FlightAware Approximate
Sun 03:44:00 PM 29.2906 132.3494 328° Northwest  Level FlightAware Approximate
Sun 03:45:00 PM 29.3953 132.2734 328° Northwest  Level FlightAware Approximate
Sun 03:46:00 PM 29.5000 132.1973 328° Northwest  Level FlightAware Approximate
Sun 03:47:00 PM 29.6046 132.1210 328° Northwest  Level FlightAware Approximate
Sun 03:48:00 PM 29.7091 132.0446 328° Northwest  Level FlightAware Approximate
Sun 03:49:00 PM 29.8137 131.9680 328° Northwest  Level FlightAware Approximate
Sun 03:50:00 PM 29.9181 131.8913 328° Northwest  Level FlightAware Approximate
Sun 03:51:00 PM 30.0226 131.8144 327° Northwest  Level FlightAware Approximate
Sun 03:52:00 PM 30.1270 131.7374 327° Northwest  Level FlightAware Approximate
Sun 03:53:00 PM 30.2313 131.6602 327° Northwest  Level FlightAware Approximate
Sun 03:54:00 PM 30.3357 131.5829 327° Northwest  Level FlightAware Approximate
Sun 03:55:00 PM 30.4400 131.5055 327° Northwest  Level FlightAware Approximate
Sun 03:56:00 PM 30.5443 131.4279 327° Northwest  Level FlightAware Approximate
Sun 03:57:00 PM 30.6485 131.3501 327° Northwest  Level FlightAware Approximate
Sun 03:57:34 PM 30.9440 130.9240 327° Northwest 462 532 35,000  Level FlightAware ADS-B
Sun 03:58:00 PM 30.7527 131.2722 327° Northwest  Level FlightAware Approximate
Sun 03:58:16 PM 31.0270 130.8910 341° North 475 547 35,000  Level FlightAware ADS-B
Sun 03:58:59 PM 31.1180 130.8540 341° North 479 551 35,000  Level FlightAware ADS-B
Sun 03:59:40 PM 31.1970 130.8190 339° North 477 549 35,000  Level FlightAware ADS-B
Sun 04:00:18 PM 31.2840 130.7810 340° North 474 545 35,000  Level FlightAware ADS-B
Sun 04:00:48 PM 31.3450 130.7550 340° North 473 544 35,000  Level FlightAware ADS-B
Sun 04:01:33 PM 31.4380 130.7150 340° North 472 543 35,000  Level FlightAware ADS-B
Sun 04:02:14 PM 31.5220 130.6780 339° North 471 542 35,000  Level FlightAware ADS-B
Sun 04:02:58 PM 31.6120 130.6390 340° North 474 545 35,000  Level FlightAware ADS-B
Sun 04:03:39 PM 31.6960 130.6020 339° North 474 545 35,000 74 Level FlightAware ADS-B
Sun 04:04:19 PM 31.7790 130.5660 340° North 471 542 35,100  Climbing FlightAware ADS-B
Sun 04:04:59 PM 31.8600 130.5310 340° North 465 535 35,000 162 Descending FlightAware ADS-B
Sun 04:05:33 PM 31.9300 130.5000 339° North 465 535 35,300 568 Climbing FlightAware ADS-B
Sun 04:06:13 PM 32.0070 130.4660 339° North 460 529 35,700 525 Climbing FlightAware ADS-B
Sun 04:06:53 PM 32.0890 130.4300 340° North 459 528 36,000 222 Climbing FlightAware ADS-B
Sun 04:07:34 PM 32.1690 130.3950 340° North 458 527 36,000  Level FlightAware ADS-B
Sun 04:08:13 PM 32.2370 130.3650 340° North 460 529 36,000  Level FlightAware ADS-B
Sun 04:08:54 PM 32.3280 130.3240 339° North 461 531 36,000  Level FlightAware ADS-B
Sun 04:09:39 PM 32.4180 130.2850 340° North 458 527 36,000  Level FlightAware ADS-B
Sun 04:10:24 PM 32.5070 130.2450 339° North 460 529 36,000  Level FlightAware ADS-B
Sun 04:11:32 PM 32.6290 130.1900 339° North 459 528 36,000  Level FlightAware ADS-B
Sun 04:12:18 PM 32.6920 130.1630 340° North 448 516 36,000  Level FlightAware ADS-B
Sun 04:12:56 PM 32.8080 130.1110 339° North 447 514 36,000  Level FlightAware ADS-B
Sun 04:13:36 PM 32.8890 130.0750 340° North 448 516 36,000  Level FlightAware ADS-B
Sun 04:14:21 PM 32.9770 130.0350 339° North 447 514 36,000  Level FlightAware ADS-B
Sun 04:15:02 PM 33.0570 129.9990 339° North 445 512 36,000  Level FlightAware ADS-B
Sun 04:15:31 PM 33.1140 129.9740 340° North 445 512 36,000  Level FlightAware ADS-B
Sun 04:16:13 PM 33.1940 129.9380 339° North 447 514 36,000  Level FlightAware ADS-B
Sun 04:16:56 PM 33.2810 129.8980 339° North 452 520 36,000  Level FlightAware ADS-B
Sun 04:17:32 PM 33.3510 129.8660 339° North 450 518 36,000  Level FlightAware ADS-B
Sun 04:18:06 PM 33.4170 129.8360 339° North 450 518 36,000  Level FlightAware ADS-B
Sun 04:18:46 PM 33.4950 129.8010 339° North 450 518 36,000  Level FlightAware ADS-B
Sun 04:19:31 PM 33.5840 129.7610 339° North 451 519 36,000  Level FlightAware ADS-B
Sun 04:20:06 PM 33.6470 129.7320 339° North 446 513 36,000  Level FlightAware ADS-B
Sun 04:20:54 PM 33.7450 129.6870 339° North 449 517 36,000 59 Level FlightAware ADS-B
Sun 04:21:48 PM 33.8540 129.6370 339° North 452 520 36,100 64 Climbing FlightAware ADS-B
Sun 04:22:28 PM 33.9330 129.6000 339° North 461 531 36,100  Level FlightAware ADS-B
Sun 04:23:13 PM 34.0230 129.5590 339° North 450 518 36,100 -71 Level FlightAware ADS-B
Sun 04:23:53 PM 34.1020 129.5230 339° North 446 513 36,000 -70 Descending FlightAware ADS-B
Sun 04:24:39 PM 34.1900 129.4820 339° North 447 514 36,000  Level FlightAware ADS-B
Sun 04:25:23 PM 34.2760 129.4420 339° North 444 511 36,000  Level FlightAware ADS-B
Sun 04:26:30 PM 34.4050 129.3820 339° North 449 517 36,000  Level FlightAware ADS-B
Sun 04:27:14 PM 34.4900 129.3420 339° North 451 519 36,000 71 Level FlightAware ADS-B
Sun 04:27:54 PM 34.5690 129.3050 339° North 450 518 36,100 75 Climbing FlightAware ADS-B
Sun 04:28:34 PM 34.6400 129.2720 339° North 450 518 36,100 -70 Level FlightAware ADS-B
Sun 04:29:20 PM 34.7330 129.2280 339° North 450 518 36,000 -60 Descending FlightAware ADS-B
Sun 04:30:14 PM 34.8120 129.1810 334° Northwest 449 517 36,000  Level FlightAware ADS-B
Sun 04:30:54 PM 34.9090 129.1180 332° Northwest 442 509 36,000  Level FlightAware ADS-B
Sun 04:31:51 PM 35.0070 129.0510 331° Northwest 441 507 36,000 62 Level FlightAware ADS-B
Sun 04:32:31 PM 35.0790 129.0020 331° Northwest 446 513 36,100 71 Climbing FlightAware ADS-B
Sun 04:33:16 PM 35.1640 128.9440 331° Northwest 444 511 36,100  Level FlightAware ADS-B
Sun 04:33:59 PM 35.2280 128.8990 330° Northwest 445 512 36,100  Level FlightAware ADS-B
Sun 04:34:26 PM 35.2690 128.8710 331° Northwest 445 512 36,100  Level FlightAware ADS-B
Sun 04:35:15 PM 35.3430 128.8180 330° Northwest 445 512 36,100  Level FlightAware ADS-B
Sun 04:35:52 PM 35.3990 128.7780 330° Northwest 445 512 36,100  Level FlightAware ADS-B
Sun 04:36:28 PM 35.4530 128.7400 330° Northwest 445 512 36,100  Level FlightAware ADS-B
Sun 04:37:15 PM 35.5250 128.6890 330° Northwest 445 512 36,100  Level FlightAware ADS-B
Sun 04:37:52 PM 35.5810 128.6490 330° Northwest 445 512 36,100  Level FlightAware ADS-B
Sun 04:38:40 PM 35.6530 128.5980 330° Northwest 445 512 36,100  Level FlightAware ADS-B
Sun 04:39:17 PM 35.7100 128.5580 330° Northwest 445 512 36,100  Level FlightAware ADS-B
Sun 04:40:05 PM 35.7820 128.5060 330° Northwest 445 512 36,100  Level FlightAware ADS-B
Sun 04:40:46 PM 35.8440 128.4620 330° Northwest 445 512 36,100  Level FlightAware ADS-B
Sun 04:41:23 PM 35.9010 128.4220 330° Northwest 445 512 36,100  Level FlightAware ADS-B
Sun 04:42:12 PM 35.9750 128.3690 330° Northwest 445 512 36,100  Level FlightAware ADS-B
Sun 04:42:49 PM 36.0310 128.3290 330° Northwest 445 512 36,100 -1,933 Level FlightAware ADS-B
Sun 04:45:00 PM 36.2195 128.0889 314° West  Level Estimated
Sun 04:46:00 PM 36.3057 127.9785 314° West  Level Estimated
Sun 04:47:00 PM 36.3917 127.8679 314° West  Level Estimated
Sun 04:48:00 PM 36.4777 127.7571 314° West  Level Estimated
Sun 04:49:00 PM 36.5636 127.6460 314° West  Level Estimated
Sun 04:50:00 PM 36.6493 127.5346 314° West  Level Estimated
Sun 04:51:00 PM 36.7350 127.4230 314° West  Level Estimated
Sun 04:51:40 PM 37.1090 127.5640 314° West 429 494 17,800  Level FlightAware ADS-B
Sun 04:52:20 PM 37.1710 127.5130 327° Northwest 380 437 17,200 -565 Descending FlightAware ADS-B
Sun 04:53:05 PM 37.2250 127.4530 319° Northwest 312 359 17,000 -400 Descending FlightAware ADS-B
Sun 04:53:20 PM 37.2290 127.4260 281° West 295 339 16,800 -1,200 Descending FlightAware ADS-B
Sun 04:54:05 PM 37.2230 127.3550 264° West 266 306 15,800 -1,694 Descending FlightAware ADS-B
Sun 04:54:45 PM 37.2170 127.2950 263° West 257 296 14,400 -2,250 Descending FlightAware ADS-B
Sun 04:55:25 PM 37.2120 127.2360 264° West 254 292 12,800 -2,250 Descending FlightAware ADS-B
Sun 04:56:05 PM 37.2080 127.1770 265° West 249 287 11,400 -2,233 Descending FlightAware ADS-B
Sun 04:56:51 PM 37.2010 127.1100 263° West 251 289 9,600 -2,262 Descending FlightAware ADS-B
Sun 04:57:06 PM 37.1990 127.0930 262° West 251 289 9,100 -1,119 Descending FlightAware ADS-B
Sun 04:57:50 PM 37.1910 127.0320 261° West 248 285 8,500 -529 Descending FlightAware ADS-B
Sun 04:58:14 PM 37.1880 127.0030 263° West 248 285 8,500 -171 Level FlightAware ADS-B
Sun 04:59:00 PM 37.1810 126.9350 263° West 246 283 8,300 -171 Descending FlightAware ADS-B
Sun 04:59:24 PM 37.1780 126.9060 263° West 246 283 8,300  Level FlightAware ADS-B
Sun 04:59:49 PM 37.1750 126.8760 263° West 246 283 8,300 -857 Level FlightAware ADS-B
Sun 05:02:00 PM 37.4213 126.8104 284° West  Level FlightAware Approximate
Sun 05:03:00 PM 37.4500 126.6623 270° West  Level FlightAware Approximate
Sun 05:04:00 PM 37.4725 126.5091 280° West  Level FlightAware Approximate
Sun 05:04:32 PM 37.2780 126.6230 280° West 178 205 3,900  Level FlightAware ADS-B
Sun 05:04:58 PM 37.2930 126.6100 325° Northwest 181 208 3,900  Level FlightAware ADS-B
Sun 05:07:00 PM 37.4691 126.4505 324° Northwest  Level Estimated
Sun 05:08:00 PM 37.4691 126.4505 335° Northwest  Level Estimated
Sun 05:09:00 PM 37.4691 126.4505 335° Northwest  Level Estimated
Sun 05:10:00 PM 37.4691 126.4505 335° Northwest  Level Estimated
Sun 05:11:00 PM 37.4691 126.4505 335° Northwest  Level Estimated
Sun 05:12:00 PM 37.4691 126.4505 335° Northwest  Level Estimated
Sun 05:13:00 PM 37.4691 126.4505 335° Northwest  Level Estimated
Sun 05:14:00 PM 37.4691 126.4505 335° Northwest  Level Estimated
Sun 05:15:00 PM 37.4691 126.4505 335° Northwest  Level Estimated
Sun 05:16:00 PM 37.4691 126.4505 335° Northwest  Level Estimated
Sun 05:17:00 PM 37.4691 126.4505 335° Northwest  Level Estimated
Sun 05:18:00 PM 37.4691 126.4505 335° Northwest  Level Estimated
Sun 05:19:00 PM 37.4691 126.4505 335° Northwest  Level Estimated
Sun 05:20:00 PM 37.4691 126.4505 335° Northwest  Level Estimated
Sun 05:21:00 PM 37.4691 126.4505 335° Northwest  Level Estimated
Sun 05:22:00 PM 37.4691 126.4505 335° Northwest  Level Estimated

Login

Don't have an account? Register now (free) for customized features, flight alerts, and more!